sensor_id;sensor_type;location;lat;lon;timestamp;P1;durP1;ratioP1;P2;durP2;ratioP2
48897;SDS011;34713;50.038;20.000;2022-09-03T00:02:51;5.80;;;3.12;;
48897;SDS011;34713;50.038;20.000;2022-09-03T00:05:40;5.25;;;2.20;;
48897;SDS011;34713;50.038;20.000;2022-09-03T00:11:09;4.50;;;2.77;;
48897;SDS011;34713;50.038;20.000;2022-09-03T00:13:46;9.40;;;2.77;;
48897;SDS011;34713;50.038;20.000;2022-09-03T00:16:16;5.15;;;2.47;;
48897;SDS011;34713;50.038;20.000;2022-09-03T00:18:47;9.38;;;2.70;;
48897;SDS011;34713;50.038;20.000;2022-09-03T00:24:06;4.72;;;2.30;;
48897;SDS011;34713;50.038;20.000;2022-09-03T00:26:36;5.15;;;1.85;;
48897;SDS011;34713;50.038;20.000;2022-09-03T00:31:48;4.78;;;2.15;;
48897;SDS011;34713;50.038;20.000;2022-09-03T00:37:03;12.68;;;2.30;;
48897;SDS011;34713;50.038;20.000;2022-09-03T00:39:29;6.28;;;2.40;;
48897;SDS011;34713;50.038;20.000;2022-09-03T00:45:14;8.05;;;2.80;;
48897;SDS011;34713;50.038;20.000;2022-09-03T00:50:55;6.03;;;3.10;;
48897;SDS011;34713;50.038;20.000;2022-09-03T01:02:22;8.55;;;3.75;;
48897;SDS011;34713;50.038;20.000;2022-09-03T01:05:04;8.40;;;3.60;;
48897;SDS011;34713;50.038;20.000;2022-09-03T01:07:38;5.95;;;3.50;;
48897;SDS011;34713;50.038;20.000;2022-09-03T01:10:33;6.30;;;3.25;;
48897;SDS011;34713;50.038;20.000;2022-09-03T01:15:54;3.15;;;2.00;;
48897;SDS011;34713;50.038;20.000;2022-09-03T01:18:35;5.08;;;2.12;;
48897;SDS011;34713;50.038;20.000;2022-09-03T01:24:35;8.08;;;2.40;;
48897;SDS011;34713;50.038;20.000;2022-09-03T01:30:05;5.60;;;2.67;;
48897;SDS011;34713;50.038;20.000;2022-09-03T01:41:19;5.42;;;2.30;;
48897;SDS011;34713;50.038;20.000;2022-09-03T01:56:53;6.40;;;2.55;;
48897;SDS011;34713;50.038;20.000;2022-09-03T02:02:15;7.85;;;2.72;;
48897;SDS011;34713;50.038;20.000;2022-09-03T02:07:39;6.55;;;2.67;;
48897;SDS011;34713;50.038;20.000;2022-09-03T02:10:10;5.43;;;2.50;;
48897;SDS011;34713;50.038;20.000;2022-09-03T02:12:40;8.48;;;2.42;;
48897;SDS011;34713;50.038;20.000;2022-09-03T02:15:11;6.65;;;2.40;;
48897;SDS011;34713;50.038;20.000;2022-09-03T02:17:41;8.05;;;2.87;;
48897;SDS011;34713;50.038;20.000;2022-09-03T02:20:10;3.98;;;2.20;;
48897;SDS011;34713;50.038;20.000;2022-09-03T02:22:40;6.12;;;2.42;;
48897;SDS011;34713;50.038;20.000;2022-09-03T02:25:07;6.90;;;2.50;;
48897;SDS011;34713;50.038;20.000;2022-09-03T02:27:36;5.53;;;2.62;;
48897;SDS011;34713;50.038;20.000;2022-09-03T02:30:03;6.58;;;2.40;;
48897;SDS011;34713;50.038;20.000;2022-09-03T02:32:30;6.58;;;2.60;;
48897;SDS011;34713;50.038;20.000;2022-09-03T02:34:57;6.92;;;2.30;;
48897;SDS011;34713;50.038;20.000;2022-09-03T02:37:23;4.00;;;2.15;;
48897;SDS011;34713;50.038;20.000;2022-09-03T02:39:49;4.90;;;2.22;;
48897;SDS011;34713;50.038;20.000;2022-09-03T02:42:18;5.37;;;2.55;;
48897;SDS011;34713;50.038;20.000;2022-09-03T02:44:49;5.42;;;2.62;;
48897;SDS011;34713;50.038;20.000;2022-09-03T02:47:15;5.75;;;2.87;;
48897;SDS011;34713;50.038;20.000;2022-09-03T02:49:42;4.95;;;2.10;;
48897;SDS011;34713;50.038;20.000;2022-09-03T02:52:08;4.15;;;1.92;;
48897;SDS011;34713;50.038;20.000;2022-09-03T02:54:37;4.67;;;2.55;;
48897;SDS011;34713;50.038;20.000;2022-09-03T02:57:08;5.97;;;2.60;;
48897;SDS011;34713;50.038;20.000;2022-09-03T02:59:35;4.97;;;2.80;;
48897;SDS011;34713;50.038;20.000;2022-09-03T03:02:02;5.95;;;2.40;;
48897;SDS011;34713;50.038;20.000;2022-09-03T03:04:29;5.72;;;2.45;;
48897;SDS011;34713;50.038;20.000;2022-09-03T03:06:55;6.17;;;2.60;;
48897;SDS011;34713;50.038;20.000;2022-09-03T03:09:21;6.90;;;2.50;;
48897;SDS011;34713;50.038;20.000;2022-09-03T03:11:46;5.72;;;2.33;;
48897;SDS011;34713;50.038;20.000;2022-09-03T03:14:14;3.12;;;2.20;;
48897;SDS011;34713;50.038;20.000;2022-09-03T03:16:41;4.85;;;2.50;;
48897;SDS011;34713;50.038;20.000;2022-09-03T03:19:07;5.37;;;2.37;;
48897;SDS011;34713;50.038;20.000;2022-09-03T03:21:32;5.10;;;2.58;;
48897;SDS011;34713;50.038;20.000;2022-09-03T03:23:59;5.53;;;2.27;;
48897;SDS011;34713;50.038;20.000;2022-09-03T03:26:26;8.48;;;2.75;;
48897;SDS011;34713;50.038;20.000;2022-09-03T03:28:56;5.75;;;2.50;;
48897;SDS011;34713;50.038;20.000;2022-09-03T03:31:25;8.10;;;2.67;;
48897;SDS011;34713;50.038;20.000;2022-09-03T03:33:52;7.72;;;2.85;;
48897;SDS011;34713;50.038;20.000;2022-09-03T03:36:20;5.20;;;2.40;;
48897;SDS011;34713;50.038;20.000;2022-09-03T03:38:47;4.55;;;2.30;;
48897;SDS011;34713;50.038;20.000;2022-09-03T03:41:14;6.00;;;2.37;;
48897;SDS011;34713;50.038;20.000;2022-09-03T03:43:43;6.37;;;2.55;;
48897;SDS011;34713;50.038;20.000;2022-09-03T03:46:09;6.33;;;2.67;;
48897;SDS011;34713;50.038;20.000;2022-09-03T03:48:36;5.00;;;2.30;;
48897;SDS011;34713;50.038;20.000;2022-09-03T03:51:04;7.90;;;3.55;;
48897;SDS011;34713;50.038;20.000;2022-09-03T03:53:32;4.72;;;2.20;;
48897;SDS011;34713;50.038;20.000;2022-09-03T03:56:00;7.45;;;2.80;;
48897;SDS011;34713;50.038;20.000;2022-09-03T03:58:29;5.50;;;2.92;;
48897;SDS011;34713;50.038;20.000;2022-09-03T04:01:08;10.08;;;3.25;;
48897;SDS011;34713;50.038;20.000;2022-09-03T04:03:33;6.05;;;3.02;;
48897;SDS011;34713;50.038;20.000;2022-09-03T04:06:00;6.17;;;2.55;;
48897;SDS011;34713;50.038;20.000;2022-09-03T04:08:27;4.55;;;2.62;;
48897;SDS011;34713;50.038;20.000;2022-09-03T04:10:53;7.35;;;2.50;;
48897;SDS011;34713;50.038;20.000;2022-09-03T04:13:32;5.62;;;2.58;;
48897;SDS011;34713;50.038;20.000;2022-09-03T04:16:11;5.85;;;2.58;;
48897;SDS011;34713;50.038;20.000;2022-09-03T04:18:40;5.67;;;2.37;;
48897;SDS011;34713;50.038;20.000;2022-09-03T04:21:07;10.60;;;2.90;;
48897;SDS011;34713;50.038;20.000;2022-09-03T04:23:40;6.47;;;2.72;;
48897;SDS011;34713;50.038;20.000;2022-09-03T04:26:08;4.97;;;2.67;;
48897;SDS011;34713;50.038;20.000;2022-09-03T04:28:37;8.58;;;3.08;;
48897;SDS011;34713;50.038;20.000;2022-09-03T04:31:04;5.78;;;2.35;;
48897;SDS011;34713;50.038;20.000;2022-09-03T04:33:33;5.60;;;3.08;;
48897;SDS011;34713;50.038;20.000;2022-09-03T04:36:22;8.20;;;2.90;;
48897;SDS011;34713;50.038;20.000;2022-09-03T04:38:48;4.72;;;2.75;;
48897;SDS011;34713;50.038;20.000;2022-09-03T04:41:26;4.35;;;2.90;;
48897;SDS011;34713;50.038;20.000;2022-09-03T04:43:54;5.40;;;2.65;;
48897;SDS011;34713;50.038;20.000;2022-09-03T04:46:22;7.33;;;2.87;;
48897;SDS011;34713;50.038;20.000;2022-09-03T04:48:53;5.22;;;2.60;;
48897;SDS011;34713;50.038;20.000;2022-09-03T04:51:24;5.80;;;2.50;;
48897;SDS011;34713;50.038;20.000;2022-09-03T04:54:00;8.38;;;3.20;;
48897;SDS011;34713;50.038;20.000;2022-09-03T04:56:30;6.17;;;2.72;;
48897;SDS011;34713;50.038;20.000;2022-09-03T04:58:59;6.12;;;2.67;;
48897;SDS011;34713;50.038;20.000;2022-09-03T05:01:28;6.75;;;2.65;;
48897;SDS011;34713;50.038;20.000;2022-09-03T05:03:58;5.35;;;2.37;;
48897;SDS011;34713;50.038;20.000;2022-09-03T05:06:25;8.08;;;3.02;;
48897;SDS011;34713;50.038;20.000;2022-09-03T05:08:53;9.95;;;3.50;;
48897;SDS011;34713;50.038;20.000;2022-09-03T05:11:20;7.15;;;2.58;;
48897;SDS011;34713;50.038;20.000;2022-09-03T05:13:47;9.75;;;2.95;;
48897;SDS011;34713;50.038;20.000;2022-09-03T05:16:14;6.78;;;3.42;;
48897;SDS011;34713;50.038;20.000;2022-09-03T05:18:41;5.85;;;2.87;;
48897;SDS011;34713;50.038;20.000;2022-09-03T05:21:08;10.35;;;2.90;;
48897;SDS011;34713;50.038;20.000;2022-09-03T05:23:36;7.92;;;3.10;;
48897;SDS011;34713;50.038;20.000;2022-09-03T05:26:13;11.73;;;3.10;;
48897;SDS011;34713;50.038;20.000;2022-09-03T05:28:39;5.03;;;2.87;;
48897;SDS011;34713;50.038;20.000;2022-09-03T05:31:07;6.85;;;3.47;;
48897;SDS011;34713;50.038;20.000;2022-09-03T05:33:37;11.53;;;3.40;;
48897;SDS011;34713;50.038;20.000;2022-09-03T05:36:13;10.03;;;3.02;;
48897;SDS011;34713;50.038;20.000;2022-09-03T05:38:42;8.68;;;3.83;;
48897;SDS011;34713;50.038;20.000;2022-09-03T05:41:09;12.03;;;4.08;;
48897;SDS011;34713;50.038;20.000;2022-09-03T05:43:36;12.00;;;3.40;;
48897;SDS011;34713;50.038;20.000;2022-09-03T05:46:07;7.05;;;3.20;;
48897;SDS011;34713;50.038;20.000;2022-09-03T05:48:37;7.50;;;3.70;;
48897;SDS011;34713;50.038;20.000;2022-09-03T05:51:06;6.92;;;3.25;;
48897;SDS011;34713;50.038;20.000;2022-09-03T05:53:40;7.12;;;3.45;;
48897;SDS011;34713;50.038;20.000;2022-09-03T05:56:11;7.92;;;3.42;;
48897;SDS011;34713;50.038;20.000;2022-09-03T05:58:42;7.22;;;3.70;;
48897;SDS011;34713;50.038;20.000;2022-09-03T06:03:45;8.78;;;3.22;;
48897;SDS011;34713;50.038;20.000;2022-09-03T06:06:13;7.70;;;3.52;;
48897;SDS011;34713;50.038;20.000;2022-09-03T06:08:39;7.83;;;3.60;;
48897;SDS011;34713;50.038;20.000;2022-09-03T06:11:06;9.53;;;3.67;;
48897;SDS011;34713;50.038;20.000;2022-09-03T06:13:33;8.63;;;3.60;;
48897;SDS011;34713;50.038;20.000;2022-09-03T06:16:00;6.70;;;3.58;;
48897;SDS011;34713;50.038;20.000;2022-09-03T06:18:29;7.28;;;3.58;;
48897;SDS011;34713;50.038;20.000;2022-09-03T06:20:56;6.22;;;3.37;;
48897;SDS011;34713;50.038;20.000;2022-09-03T06:23:24;4.53;;;2.87;;
48897;SDS011;34713;50.038;20.000;2022-09-03T06:28:41;6.85;;;3.20;;
48897;SDS011;34713;50.038;20.000;2022-09-03T06:31:14;5.75;;;3.00;;
48897;SDS011;34713;50.038;20.000;2022-09-03T06:33:39;5.95;;;3.37;;
48897;SDS011;34713;50.038;20.000;2022-09-03T06:36:07;5.60;;;3.22;;
48897;SDS011;34713;50.038;20.000;2022-09-03T06:38:40;5.33;;;3.25;;
48897;SDS011;34713;50.038;20.000;2022-09-03T06:41:06;5.90;;;2.72;;
48897;SDS011;34713;50.038;20.000;2022-09-03T06:43:38;7.83;;;2.98;;
48897;SDS011;34713;50.038;20.000;2022-09-03T06:48:39;8.43;;;2.72;;
48897;SDS011;34713;50.038;20.000;2022-09-03T06:51:10;7.72;;;3.05;;
48897;SDS011;34713;50.038;20.000;2022-09-03T06:53:40;6.90;;;2.87;;
48897;SDS011;34713;50.038;20.000;2022-09-03T06:56:13;9.70;;;3.70;;
48897;SDS011;34713;50.038;20.000;2022-09-03T06:58:42;9.18;;;3.50;;
48897;SDS011;34713;50.038;20.000;2022-09-03T07:01:14;6.33;;;2.70;;
48897;SDS011;34713;50.038;20.000;2022-09-03T07:03:44;8.23;;;3.30;;
48897;SDS011;34713;50.038;20.000;2022-09-03T07:06:13;6.15;;;2.85;;
48897;SDS011;34713;50.038;20.000;2022-09-03T07:08:41;7.53;;;2.80;;
48897;SDS011;34713;50.038;20.000;2022-09-03T07:11:13;6.85;;;2.72;;
48897;SDS011;34713;50.038;20.000;2022-09-03T07:13:39;6.35;;;2.80;;
48897;SDS011;34713;50.038;20.000;2022-09-03T07:16:16;8.00;;;3.08;;
48897;SDS011;34713;50.038;20.000;2022-09-03T07:18:45;6.35;;;3.15;;
48897;SDS011;34713;50.038;20.000;2022-09-03T07:21:12;6.15;;;2.72;;
48897;SDS011;34713;50.038;20.000;2022-09-03T07:23:41;6.15;;;2.62;;
48897;SDS011;34713;50.038;20.000;2022-09-03T07:26:09;5.33;;;2.77;;
48897;SDS011;34713;50.038;20.000;2022-09-03T07:28:40;4.72;;;2.65;;
48897;SDS011;34713;50.038;20.000;2022-09-03T07:31:15;7.00;;;3.12;;
48897;SDS011;34713;50.038;20.000;2022-09-03T07:33:43;7.00;;;3.02;;
48897;SDS011;34713;50.038;20.000;2022-09-03T07:36:11;6.65;;;2.60;;
48897;SDS011;34713;50.038;20.000;2022-09-03T07:38:41;4.35;;;2.58;;
48897;SDS011;34713;50.038;20.000;2022-09-03T07:41:09;3.85;;;2.35;;
48897;SDS011;34713;50.038;20.000;2022-09-03T07:43:39;4.85;;;2.17;;
48897;SDS011;34713;50.038;20.000;2022-09-03T07:46:11;5.37;;;2.85;;
48897;SDS011;34713;50.038;20.000;2022-09-03T07:48:42;5.60;;;2.80;;
48897;SDS011;34713;50.038;20.000;2022-09-03T07:51:08;3.95;;;2.40;;
48897;SDS011;34713;50.038;20.000;2022-09-03T07:53:34;6.97;;;2.45;;
48897;SDS011;34713;50.038;20.000;2022-09-03T07:56:04;7.30;;;2.40;;
48897;SDS011;34713;50.038;20.000;2022-09-03T07:58:34;5.53;;;1.98;;
48897;SDS011;34713;50.038;20.000;2022-09-03T08:01:07;7.33;;;2.75;;
48897;SDS011;34713;50.038;20.000;2022-09-03T08:03:33;3.75;;;2.20;;
48897;SDS011;34713;50.038;20.000;2022-09-03T08:06:00;6.30;;;2.30;;
48897;SDS011;34713;50.038;20.000;2022-09-03T08:08:31;4.60;;;2.50;;
48897;SDS011;34713;50.038;20.000;2022-09-03T08:11:08;6.35;;;2.47;;
48897;SDS011;34713;50.038;20.000;2022-09-03T08:13:42;4.70;;;2.47;;
48897;SDS011;34713;50.038;20.000;2022-09-03T08:16:12;5.12;;;2.60;;
48897;SDS011;34713;50.038;20.000;2022-09-03T08:18:45;8.60;;;2.95;;
48897;SDS011;34713;50.038;20.000;2022-09-03T08:21:12;3.30;;;2.10;;
48897;SDS011;34713;50.038;20.000;2022-09-03T08:23:44;3.72;;;2.27;;
48897;SDS011;34713;50.038;20.000;2022-09-03T08:26:13;5.92;;;2.45;;
48897;SDS011;34713;50.038;20.000;2022-09-03T08:28:41;3.90;;;2.35;;
48897;SDS011;34713;50.038;20.000;2022-09-03T08:31:09;3.02;;;2.15;;
48897;SDS011;34713;50.038;20.000;2022-09-03T08:33:40;5.60;;;2.25;;
48897;SDS011;34713;50.038;20.000;2022-09-03T08:38:39;5.37;;;2.45;;
48897;SDS011;34713;50.038;20.000;2022-09-03T08:41:11;3.67;;;2.30;;
48897;SDS011;34713;50.038;20.000;2022-09-03T08:52:49;3.92;;;2.15;;
48897;SDS011;34713;50.038;20.000;2022-09-03T08:58:08;3.22;;;1.75;;
48897;SDS011;34713;50.038;20.000;2022-09-03T09:15:49;3.00;;;1.82;;
48897;SDS011;34713;50.038;20.000;2022-09-03T09:18:58;5.72;;;1.80;;
48897;SDS011;34713;50.038;20.000;2022-09-03T09:22:33;3.85;;;2.12;;
48897;SDS011;34713;50.038;20.000;2022-09-03T09:24:21;3.33;;;2.15;;
48897;SDS011;34713;50.038;20.000;2022-09-03T09:26:54;3.67;;;2.12;;
48897;SDS011;34713;50.038;20.000;2022-09-03T09:29:30;4.25;;;2.30;;
48897;SDS011;34713;50.038;20.000;2022-09-03T09:31:58;5.93;;;2.50;;
48897;SDS011;34713;50.038;20.000;2022-09-03T09:34:24;5.03;;;2.40;;
48897;SDS011;34713;50.038;20.000;2022-09-03T09:36:51;4.20;;;2.15;;
48897;SDS011;34713;50.038;20.000;2022-09-03T09:39:19;4.60;;;2.50;;
48897;SDS011;34713;50.038;20.000;2022-09-03T09:42:09;3.37;;;2.27;;
48897;SDS011;34713;50.038;20.000;2022-09-03T09:44:36;5.15;;;2.20;;
48897;SDS011;34713;50.038;20.000;2022-09-03T09:47:12;3.87;;;2.12;;
48897;SDS011;34713;50.038;20.000;2022-09-03T09:52:19;4.25;;;2.40;;
48897;SDS011;34713;50.038;20.000;2022-09-03T09:54:49;3.10;;;2.35;;
48897;SDS011;34713;50.038;20.000;2022-09-03T09:57:17;3.45;;;2.25;;
48897;SDS011;34713;50.038;20.000;2022-09-03T09:59:49;6.58;;;2.37;;
48897;SDS011;34713;50.038;20.000;2022-09-03T10:02:37;4.62;;;2.85;;
48897;SDS011;34713;50.038;20.000;2022-09-03T10:07:59;3.72;;;2.50;;
48897;SDS011;34713;50.038;20.000;2022-09-03T10:10:35;4.22;;;2.20;;
48897;SDS011;34713;50.038;20.000;2022-09-03T10:15:59;4.05;;;2.62;;
48897;SDS011;34713;50.038;20.000;2022-09-03T10:18:37;3.90;;;2.55;;
48897;SDS011;34713;50.038;20.000;2022-09-03T10:21:14;4.35;;;2.40;;
48897;SDS011;34713;50.038;20.000;2022-09-03T10:27:13;5.10;;;2.40;;
48897;SDS011;34713;50.038;20.000;2022-09-03T10:29:42;5.25;;;2.60;;
48897;SDS011;34713;50.038;20.000;2022-09-03T10:46:56;5.90;;;2.90;;
48897;SDS011;34713;50.038;20.000;2022-09-03T10:49:23;5.87;;;2.67;;
48897;SDS011;34713;50.038;20.000;2022-09-03T10:55:36;4.35;;;2.77;;
48897;SDS011;34713;50.038;20.000;2022-09-03T11:07:02;4.70;;;2.80;;
48897;SDS011;34713;50.038;20.000;2022-09-03T11:12:10;3.55;;;2.42;;
48897;SDS011;34713;50.038;20.000;2022-09-03T11:14:51;6.17;;;2.37;;
48897;SDS011;34713;50.038;20.000;2022-09-03T11:17:27;4.50;;;2.87;;
48897;SDS011;34713;50.038;20.000;2022-09-03T11:20:05;4.97;;;2.40;;
48897;SDS011;34713;50.038;20.000;2022-09-03T11:22:34;4.45;;;2.85;;
48897;SDS011;34713;50.038;20.000;2022-09-03T11:25:00;6.58;;;3.10;;
48897;SDS011;34713;50.038;20.000;2022-09-03T11:30:05;4.67;;;2.98;;
48897;SDS011;34713;50.038;20.000;2022-09-03T11:32:48;4.90;;;2.92;;
48897;SDS011;34713;50.038;20.000;2022-09-03T11:35:26;3.47;;;2.27;;
48897;SDS011;34713;50.038;20.000;2022-09-03T11:38:07;5.78;;;2.52;;
48897;SDS011;34713;50.038;20.000;2022-09-03T11:40:35;5.00;;;2.37;;
48897;SDS011;34713;50.038;20.000;2022-09-03T11:46:05;5.22;;;2.35;;
48897;SDS011;34713;50.038;20.000;2022-09-03T11:48:50;3.40;;;2.35;;
48897;SDS011;34713;50.038;20.000;2022-09-03T11:51:33;3.90;;;2.60;;
48897;SDS011;34713;50.038;20.000;2022-09-03T11:56:46;3.92;;;1.90;;
48897;SDS011;34713;50.038;20.000;2022-09-03T11:59:15;3.85;;;2.35;;
48897;SDS011;34713;50.038;20.000;2022-09-03T12:04:28;4.50;;;2.45;;
48897;SDS011;34713;50.038;20.000;2022-09-03T12:07:20;2.50;;;1.90;;
48897;SDS011;34713;50.038;20.000;2022-09-03T12:13:20;4.05;;;2.25;;
48897;SDS011;34713;50.038;20.000;2022-09-03T12:22:06;3.12;;;1.92;;
48897;SDS011;34713;50.038;20.000;2022-09-03T12:24:39;3.40;;;2.33;;
48897;SDS011;34713;50.038;20.000;2022-09-03T12:27:08;4.33;;;2.40;;
48897;SDS011;34713;50.038;20.000;2022-09-03T12:29:37;3.35;;;2.05;;
48897;SDS011;34713;50.038;20.000;2022-09-03T12:32:08;4.20;;;2.40;;
48897;SDS011;34713;50.038;20.000;2022-09-03T12:34:37;4.97;;;2.15;;
48897;SDS011;34713;50.038;20.000;2022-09-03T12:37:03;2.95;;;2.12;;
48897;SDS011;34713;50.038;20.000;2022-09-03T12:39:34;5.78;;;2.42;;
48897;SDS011;34713;50.038;20.000;2022-09-03T12:42:01;6.08;;;2.42;;
48897;SDS011;34713;50.038;20.000;2022-09-03T12:44:31;4.50;;;2.40;;
48897;SDS011;34713;50.038;20.000;2022-09-03T12:49:39;5.43;;;2.00;;
48897;SDS011;34713;50.038;20.000;2022-09-03T12:55:00;3.33;;;2.25;;
48897;SDS011;34713;50.038;20.000;2022-09-03T12:57:38;3.02;;;2.08;;
48897;SDS011;34713;50.038;20.000;2022-09-03T13:00:07;3.30;;;2.08;;
48897;SDS011;34713;50.038;20.000;2022-09-03T13:02:57;3.92;;;2.40;;
48897;SDS011;34713;50.038;20.000;2022-09-03T13:05:18;2.98;;;2.10;;
48897;SDS011;34713;50.038;20.000;2022-09-03T13:07:49;5.22;;;2.25;;
48897;SDS011;34713;50.038;20.000;2022-09-03T13:10:24;3.40;;;1.98;;
48897;SDS011;34713;50.038;20.000;2022-09-03T13:12:59;3.25;;;2.10;;
48897;SDS011;34713;50.038;20.000;2022-09-03T13:15:29;4.47;;;2.20;;
48897;SDS011;34713;50.038;20.000;2022-09-03T13:31:34;4.15;;;2.75;;
48897;SDS011;34713;50.038;20.000;2022-09-03T13:34:08;3.10;;;2.25;;
48897;SDS011;34713;50.038;20.000;2022-09-03T13:36:57;4.10;;;2.62;;
48897;SDS011;34713;50.038;20.000;2022-09-03T13:39:39;4.83;;;2.10;;
48897;SDS011;34713;50.038;20.000;2022-09-03T13:42:09;2.85;;;2.20;;
48897;SDS011;34713;50.038;20.000;2022-09-03T13:47:24;3.50;;;2.40;;
48897;SDS011;34713;50.038;20.000;2022-09-03T13:53:01;3.98;;;2.55;;
48897;SDS011;34713;50.038;20.000;2022-09-03T13:55:32;4.15;;;2.45;;
48897;SDS011;34713;50.038;20.000;2022-09-03T14:03:57;6.05;;;2.62;;
48897;SDS011;34713;50.038;20.000;2022-09-03T14:12:04;3.45;;;2.50;;
48897;SDS011;34713;50.038;20.000;2022-09-03T14:20:10;4.28;;;2.98;;
48897;SDS011;34713;50.038;20.000;2022-09-03T14:25:36;4.92;;;2.85;;
48897;SDS011;34713;50.038;20.000;2022-09-03T14:28:13;3.80;;;3.02;;
48897;SDS011;34713;50.038;20.000;2022-09-03T14:33:23;3.98;;;2.90;;
48897;SDS011;34713;50.038;20.000;2022-09-03T14:47:46;4.05;;;2.60;;
48897;SDS011;34713;50.038;20.000;2022-09-03T14:52:59;3.75;;;2.50;;
48897;SDS011;34713;50.038;20.000;2022-09-03T14:58:37;4.22;;;2.47;;
48897;SDS011;34713;50.038;20.000;2022-09-03T15:01:31;4.55;;;2.75;;
48897;SDS011;34713;50.038;20.000;2022-09-03T15:04:23;4.62;;;2.42;;
48897;SDS011;34713;50.038;20.000;2022-09-03T15:07:17;3.42;;;2.50;;
48897;SDS011;34713;50.038;20.000;2022-09-03T15:12:33;4.28;;;2.60;;
48897;SDS011;34713;50.038;20.000;2022-09-03T15:15:12;3.90;;;2.80;;
48897;SDS011;34713;50.038;20.000;2022-09-03T15:20:27;4.85;;;2.60;;
48897;SDS011;34713;50.038;20.000;2022-09-03T15:23:01;5.67;;;2.80;;
48897;SDS011;34713;50.038;20.000;2022-09-03T15:34:47;3.47;;;2.50;;
48897;SDS011;34713;50.038;20.000;2022-09-03T15:37:36;4.33;;;2.62;;
48897;SDS011;34713;50.038;20.000;2022-09-03T15:43:02;3.30;;;2.30;;
48897;SDS011;34713;50.038;20.000;2022-09-03T15:45:34;4.15;;;2.10;;
48897;SDS011;34713;50.038;20.000;2022-09-03T15:48:08;3.72;;;2.10;;
48897;SDS011;34713;50.038;20.000;2022-09-03T15:56:54;3.87;;;2.70;;
48897;SDS011;34713;50.038;20.000;2022-09-03T15:59:51;4.15;;;2.85;;
48897;SDS011;34713;50.038;20.000;2022-09-03T16:02:31;3.33;;;2.47;;
48897;SDS011;34713;50.038;20.000;2022-09-03T16:14:15;6.10;;;2.55;;
48897;SDS011;34713;50.038;20.000;2022-09-03T16:16:56;3.27;;;2.60;;
48897;SDS011;34713;50.038;20.000;2022-09-03T16:19:59;5.00;;;2.40;;
48897;SDS011;34713;50.038;20.000;2022-09-03T16:25:12;4.15;;;2.90;;
48897;SDS011;34713;50.038;20.000;2022-09-03T16:27:51;5.25;;;2.65;;
48897;SDS011;34713;50.038;20.000;2022-09-03T16:30:29;4.75;;;2.85;;
48897;SDS011;34713;50.038;20.000;2022-09-03T16:33:07;4.00;;;3.20;;
48897;SDS011;34713;50.038;20.000;2022-09-03T16:36:11;4.83;;;2.95;;
48897;SDS011;34713;50.038;20.000;2022-09-03T16:39:10;10.58;;;3.52;;
48897;SDS011;34713;50.038;20.000;2022-09-03T16:48:04;6.97;;;2.60;;
48897;SDS011;34713;50.038;20.000;2022-09-03T16:50:59;4.67;;;2.75;;
48897;SDS011;34713;50.038;20.000;2022-09-03T16:53:45;4.10;;;2.58;;
48897;SDS011;34713;50.038;20.000;2022-09-03T16:56:45;6.58;;;2.50;;
48897;SDS011;34713;50.038;20.000;2022-09-03T16:59:39;5.22;;;2.77;;
48897;SDS011;34713;50.038;20.000;2022-09-03T17:05:19;5.08;;;3.37;;
48897;SDS011;34713;50.038;20.000;2022-09-03T17:10:51;6.92;;;4.15;;
48897;SDS011;34713;50.038;20.000;2022-09-03T17:19:22;8.53;;;3.70;;
48897;SDS011;34713;50.038;20.000;2022-09-03T17:24:54;6.15;;;3.55;;
48897;SDS011;34713;50.038;20.000;2022-09-03T17:36:17;4.80;;;3.15;;
48897;SDS011;34713;50.038;20.000;2022-09-03T17:42:05;4.95;;;3.67;;
48897;SDS011;34713;50.038;20.000;2022-09-03T17:44:48;5.35;;;3.47;;
48897;SDS011;34713;50.038;20.000;2022-09-03T17:47:31;7.25;;;3.10;;
48897;SDS011;34713;50.038;20.000;2022-09-03T17:50:16;7.72;;;3.40;;
48897;SDS011;34713;50.038;20.000;2022-09-03T17:55:31;7.05;;;3.70;;
48897;SDS011;34713;50.038;20.000;2022-09-03T18:03:46;4.83;;;3.27;;
48897;SDS011;34713;50.038;20.000;2022-09-03T18:09:02;5.72;;;3.00;;
48897;SDS011;34713;50.038;20.000;2022-09-03T18:11:40;7.42;;;3.60;;
48897;SDS011;34713;50.038;20.000;2022-09-03T18:20:13;5.95;;;3.75;;
48897;SDS011;34713;50.038;20.000;2022-09-03T18:23:00;6.12;;;4.05;;
48897;SDS011;34713;50.038;20.000;2022-09-03T18:26:05;9.65;;;4.37;;
48897;SDS011;34713;50.038;20.000;2022-09-03T18:29:00;9.70;;;4.40;;
48897;SDS011;34713;50.038;20.000;2022-09-03T18:31:48;6.37;;;4.33;;
48897;SDS011;34713;50.038;20.000;2022-09-03T18:34:33;9.10;;;4.40;;
48897;SDS011;34713;50.038;20.000;2022-09-03T18:37:25;6.62;;;4.28;;
48897;SDS011;34713;50.038;20.000;2022-09-03T18:40:09;7.67;;;4.03;;
48897;SDS011;34713;50.038;20.000;2022-09-03T18:43:03;6.45;;;3.70;;
48897;SDS011;34713;50.038;20.000;2022-09-03T18:46:04;9.77;;;4.53;;
48897;SDS011;34713;50.038;20.000;2022-09-03T18:48:57;8.05;;;4.45;;
48897;SDS011;34713;50.038;20.000;2022-09-03T18:52:28;6.12;;;3.87;;
48897;SDS011;34713;50.038;20.000;2022-09-03T19:01:52;8.68;;;4.67;;
48897;SDS011;34713;50.038;20.000;2022-09-03T19:08:04;10.08;;;5.03;;
48897;SDS011;34713;50.038;20.000;2022-09-03T19:10:54;10.58;;;5.80;;
48897;SDS011;34713;50.038;20.000;2022-09-03T19:14:00;9.68;;;6.22;;
48897;SDS011;34713;50.038;20.000;2022-09-03T19:20:30;13.43;;;7.62;;
48897;SDS011;34713;50.038;20.000;2022-09-03T19:22:42;12.10;;;7.47;;
48897;SDS011;34713;50.038;20.000;2022-09-03T19:25:27;13.45;;;7.10;;
48897;SDS011;34713;50.038;20.000;2022-09-03T19:31:34;14.63;;;8.20;;
48897;SDS011;34713;50.038;20.000;2022-09-03T19:37:40;10.53;;;6.67;;
48897;SDS011;34713;50.038;20.000;2022-09-03T19:44:07;12.88;;;7.00;;
48897;SDS011;34713;50.038;20.000;2022-09-03T19:47:11;10.30;;;6.40;;
48897;SDS011;34713;50.038;20.000;2022-09-03T19:50:19;16.00;;;6.87;;
48897;SDS011;34713;50.038;20.000;2022-09-03T19:53:09;12.37;;;6.03;;
48897;SDS011;34713;50.038;20.000;2022-09-03T19:56:02;9.00;;;5.85;;
48897;SDS011;34713;50.038;20.000;2022-09-03T19:59:01;9.53;;;5.80;;
48897;SDS011;34713;50.038;20.000;2022-09-03T20:01:48;9.78;;;5.90;;
48897;SDS011;34713;50.038;20.000;2022-09-03T20:04:37;9.68;;;6.00;;
48897;SDS011;34713;50.038;20.000;2022-09-03T20:07:25;8.63;;;5.58;;
48897;SDS011;34713;50.038;20.000;2022-09-03T20:10:11;11.18;;;6.30;;
48897;SDS011;34713;50.038;20.000;2022-09-03T20:12:51;10.82;;;6.72;;
48897;SDS011;34713;50.038;20.000;2022-09-03T20:18:28;8.08;;;5.17;;
48897;SDS011;34713;50.038;20.000;2022-09-03T20:21:21;11.45;;;6.05;;
48897;SDS011;34713;50.038;20.000;2022-09-03T20:29:18;10.78;;;6.10;;
48897;SDS011;34713;50.038;20.000;2022-09-03T20:32:05;9.18;;;6.15;;
48897;SDS011;34713;50.038;20.000;2022-09-03T20:34:40;8.08;;;5.72;;
48897;SDS011;34713;50.038;20.000;2022-09-03T20:51:26;7.10;;;4.97;;
48897;SDS011;34713;50.038;20.000;2022-09-03T21:08:21;8.25;;;5.28;;
48897;SDS011;34713;50.038;20.000;2022-09-03T21:11:16;9.13;;;5.95;;
48897;SDS011;34713;50.038;20.000;2022-09-03T21:16:33;9.13;;;5.58;;
48897;SDS011;34713;50.038;20.000;2022-09-03T21:19:18;9.55;;;5.42;;
48897;SDS011;34713;50.038;20.000;2022-09-03T21:25:19;9.73;;;5.53;;
48897;SDS011;34713;50.038;20.000;2022-09-03T21:28:23;8.28;;;5.72;;
48897;SDS011;34713;50.038;20.000;2022-09-03T21:30:46;10.20;;;5.72;;
48897;SDS011;34713;50.038;20.000;2022-09-03T21:33:22;8.05;;;5.47;;
48897;SDS011;34713;50.038;20.000;2022-09-03T21:35:52;11.83;;;6.30;;
48897;SDS011;34713;50.038;20.000;2022-09-03T21:38:22;7.57;;;5.70;;